Time;durP1;ratioP1;P1;durP2;ratioP2;P2;SDS_P1;SDS_P2;PMS_P1;PMS_P2;Temp;Humidity;BMP_temperature;BMP_pressure;BME280_temperature;BME280_humidity;BME280_pressure;Samples;Min_cycle;Max_cycle;Signal;HPM_P1;HPM_P2
2024/01/16 00:00:16;;;;;;;13.40;6.80;;;;;;;-0.37;60.62;96791.33;109039;1256;73248;-27
2024/01/16 00:02:46;;;;;;;14.20;6.80;;;;;;;-0.42;60.73;96775.63;109128;1256;72631;-28
2024/01/16 00:05:16;;;;;;;12.40;6.80;;;;;;;-0.44;60.89;96765.56;109027;1256;59270;-28
2024/01/16 00:07:46;;;;;;;11.00;6.50;;;;;;;-0.51;60.70;96769.84;109107;1256;58716;-28
2024/01/16 00:10:17;;;;;;;10.40;6.30;;;;;;;-0.56;60.95;96770.15;109036;1256;73919;-27
2024/01/16 00:12:48;;;;;;;11.80;5.60;;;;;;;-0.56;61.10;96770.84;109138;1257;74361;-28
2024/01/16 00:15:18;;;;;;;12.30;6.20;;;;;;;-0.66;61.14;96784.36;109153;1256;72702;-28
2024/01/16 00:17:47;;;;;;;11.60;5.90;;;;;;;-0.73;61.25;96788.23;109128;1256;59242;-28
2024/01/16 00:20:17;;;;;;;14.50;7.50;;;;;;;-0.83;61.44;96783.82;109097;1256;60227;-28
2024/01/16 00:22:47;;;;;;;11.60;5.70;;;;;;;-0.80;61.88;96789.60;109049;1257;73866;-28
2024/01/16 00:32:48;;;;;;;9.80;5.50;;;;;;;-0.86;61.81;96790.66;102694;1292;600769;-27
2024/01/16 00:35:16;;;;;;;11.00;5.70;;;;;;;-0.89;61.98;96790.56;104830;1267;61127;-27
2024/01/16 00:37:43;;;;;;;8.90;4.90;;;;;;;-0.30;60.97;96789.58;104940;1266;61097;-27
2024/01/16 00:47:51;;;;;;;8.40;3.90;;;;;;;0.06;59.09;96794.42;102681;1292;598798;-26
2024/01/16 00:50:19;;;;;;;9.00;5.50;;;;;;;-0.12;59.17;96796.50;105054;1269;61222;-26
2024/01/16 00:52:46;;;;;;;12.00;6.90;;;;;;;-0.28;59.49;96795.40;104889;1266;61062;-27
2024/01/16 00:55:14;;;;;;;12.10;6.70;;;;;;;-0.43;59.80;96790.52;104904;1266;71980;-27
2024/01/16 00:57:42;;;;;;;12.20;6.10;;;;;;;-0.59;60.02;96791.69;104994;1269;74310;-27
2024/01/16 01:02:23;;;;;;;10.90;6.20;;;;;;;-0.94;60.97;96799.30;102817;1294;600102;-27
2024/01/16 01:04:50;;;;;;;11.80;6.30;;;;;;;-0.90;60.93;96796.77;105146;1269;61084;-27
2024/01/16 01:07:18;;;;;;;11.90;6.90;;;;;;;-1.00;61.04;96800.53;105155;1269;61190;-27
2024/01/16 01:09:46;;;;;;;11.70;6.80;;;;;;;-1.09;61.38;96806.41;105133;1268;71897;-28
2024/01/16 01:12:13;;;;;;;13.50;6.80;;;;;;;-1.20;61.82;96802.23;105143;1269;73193;-27
2024/01/16 01:22:22;;;;;;;9.60;5.40;;;;;;;-1.33;62.00;96798.56;102728;1292;599357;-27
2024/01/16 01:24:49;;;;;;;11.00;4.90;;;;;;;-1.43;62.07;96800.63;105029;1269;61263;-28
2024/01/16 01:27:17;;;;;;;8.90;6.10;;;;;;;-1.49;62.11;96801.52;104834;1266;61076;-28
2024/01/16 01:29:45;;;;;;;12.30;6.20;;;;;;;-1.54;61.92;96795.58;104820;1266;72302;-27
2024/01/16 01:32:12;;;;;;;12.80;6.30;;;;;;;-1.62;62.34;96801.90;104722;1266;74242;-27
2024/01/16 01:34:43;;;;;;;12.50;6.80;;;;;;;-1.70;62.67;96794.70;104864;1266;72663;-27
2024/01/16 01:44:47;;;;;;;10.40;5.80;;;;;;;0.15;59.46;96802.98;102735;1289;600049;-28
2024/01/16 01:54:55;;;;;;;8.30;4.90;;;;;;;-0.35;59.38;96813.68;103048;1291;600030;-27
2024/01/16 01:57:23;;;;;;;13.30;6.30;;;;;;;-0.53;59.89;96807.14;104845;1270;61263;-28
2024/01/16 01:59:50;;;;;;;9.20;5.00;;;;;;;-0.66;60.23;96806.64;104839;1270;61139;-27
2024/01/16 02:02:19;;;;;;;9.70;5.60;;;;;;;-0.79;60.39;96801.62;104792;1268;69976;-28
2024/01/16 02:04:47;;;;;;;8.60;4.90;;;;;;;-0.93;60.51;96796.78;104896;1271;74297;-28
2024/01/16 02:07:16;;;;;;;10.10;5.20;;;;;;;-1.01;60.59;96813.89;104866;1267;71354;-28
2024/01/16 02:09:44;;;;;;;8.50;5.10;;;;;;;-1.11;61.08;96821.05;104711;1264;155658;-27
2024/01/16 02:12:11;;;;;;;8.60;4.80;;;;;;;-1.17;61.23;96825.74;105149;1264;61122;-27
2024/01/16 02:14:39;;;;;;;11.50;5.60;;;;;;;-1.22;61.70;96828.30;105096;1264;72227;-27
2024/01/16 02:17:07;;;;;;;9.70;5.60;;;;;;;-1.27;62.32;96830.98;105142;1268;73195;-27
2024/01/16 02:19:35;;;;;;;13.60;6.50;;;;;;;-1.27;62.06;96827.73;104759;1269;70469;-27
2024/01/16 02:22:04;;;;;;;9.00;5.70;;;;;;;-1.26;62.24;96831.42;108753;1263;58894;-26
2024/01/16 02:24:31;;;;;;;12.20;6.30;;;;;;;-1.25;62.03;96831.36;108717;1263;58815;-26
2024/01/16 02:26:59;;;;;;;11.80;6.30;;;;;;;-1.27;62.34;96826.55;108757;1264;71796;-26
2024/01/16 02:29:26;;;;;;;12.10;6.30;;;;;;;-1.26;62.51;96829.60;108778;1264;72971;-26
2024/01/16 02:31:53;;;;;;;13.80;6.70;;;;;;;-1.24;62.36;96837.58;108745;1264;72695;-26
2024/01/16 02:34:21;;;;;;;8.70;4.90;;;;;;;-1.23;62.49;96840.60;108744;1264;60083;-26
2024/01/16 02:36:48;;;;;;;5.30;3.10;;;;;;;-0.60;62.04;96844.71;108729;1264;58815;-26
2024/01/16 02:39:16;;;;;;;9.70;4.70;;;;;;;0.31;59.91;96838.16;108715;1263;71848;-27
2024/01/16 02:41:43;;;;;;;11.50;5.20;;;;;;;0.60;58.42;96835.34;108775;1263;73020;-26
2024/01/16 02:44:11;;;;;;;8.90;4.80;;;;;;;0.58;58.43;96834.13;108776;1263;71059;-26
2024/01/16 02:46:38;;;;;;;10.40;5.80;;;;;;;0.41;58.67;96830.45;108746;1264;59256;-26
2024/01/16 02:49:07;;;;;;;9.30;5.00;;;;;;;0.25;58.86;96832.34;108747;1263;58962;-26
2024/01/16 02:51:34;;;;;;;8.40;4.70;;;;;;;0.05;59.06;96830.05;108759;1263;73045;-26
2024/01/16 02:54:02;;;;;;;12.60;5.70;;;;;;;-0.17;59.18;96823.27;108768;1263;74295;-26
2024/01/16 02:56:29;;;;;;;10.30;5.80;;;;;;;-0.31;59.58;96822.91;108786;1264;72707;-26
2024/01/16 02:58:57;;;;;;;8.90;5.30;;;;;;;-0.45;59.90;96827.66;108743;1264;59208;-26
2024/01/16 03:01:24;;;;;;;12.60;4.90;;;;;;;-0.62;60.17;96828.70;108776;1264;58823;-26
2024/01/16 03:03:52;;;;;;;11.70;5.70;;;;;;;-0.73;60.53;96832.04;108768;1264;73116;-26
2024/01/16 03:06:23;;;;;;;10.20;5.30;;;;;;;-0.89;61.05;96832.30;108895;1260;73173;-26
2024/01/16 03:08:51;;;;;;;9.40;5.40;;;;;;;-0.94;61.33;96833.52;108812;1260;72767;-26
2024/01/16 03:11:19;;;;;;;8.50;4.80;;;;;;;-0.96;61.30;96830.06;108933;1260;59419;-26
2024/01/16 03:13:49;;;;;;;9.20;4.50;;;;;;;-1.02;61.38;96833.41;108958;1260;60036;-26
2024/01/16 03:16:16;;;;;;;6.00;4.50;;;;;;;-1.13;61.95;96830.70;108945;1260;71849;-26
2024/01/16 03:18:43;;;;;;;8.50;5.20;;;;;;;-1.14;61.75;96834.73;108944;1260;73040;-26
2024/01/16 03:21:13;;;;;;;7.50;4.60;;;;;;;-1.14;61.54;96835.05;108889;1260;71489;-26
2024/01/16 03:23:40;;;;;;;6.50;4.20;;;;;;;-1.17;61.92;96837.30;108868;1260;60087;-26
2024/01/16 03:26:12;;;;;;;8.90;4.30;;;;;;;-1.17;62.13;96841.45;108925;1263;60083;-26
2024/01/16 03:28:40;;;;;;;6.80;3.10;;;;;;;-1.20;62.14;96839.06;108790;1263;73070;-26
2024/01/16 03:31:08;;;;;;;8.20;4.90;;;;;;;-1.20;62.14;96839.56;108825;1262;73217;-26
2024/01/16 03:33:41;;;;;;;11.10;5.60;;;;;;;-1.20;62.33;96843.64;108768;1263;72729;-26
2024/01/16 03:36:10;;;;;;;8.30;3.70;;;;;;;-1.24;62.53;96839.80;108830;1262;58810;-26
2024/01/16 03:38:38;;;;;;;8.10;4.70;;;;;;;-1.08;62.48;96841.59;108957;1260;59957;-26
2024/01/16 03:41:07;;;;;;;9.10;4.90;;;;;;;-0.23;60.76;96839.04;108858;1262;73062;-26
2024/01/16 03:43:35;;;;;;;5.20;3.20;;;;;;;0.22;59.37;96840.73;108774;1263;74301;-26
2024/01/16 03:46:02;;;;;;;9.10;4.50;;;;;;;0.32;58.32;96844.46;108857;1262;71398;-26
2024/01/16 03:48:30;;;;;;;10.10;5.20;;;;;;;0.19;58.72;96847.26;108875;1263;59245;-26
2024/01/16 03:50:57;;;;;;;6.70;3.60;;;;;;;0.01;58.80;96846.89;108847;1261;60023;-26
2024/01/16 03:53:25;;;;;;;8.50;4.50;;;;;;;-0.23;59.38;96849.64;108961;1260;73036;-26
2024/01/16 03:55:52;;;;;;;9.80;5.50;;;;;;;-0.33;59.65;96848.96;108904;1262;73498;-26
2024/01/16 03:58:20;;;;;;;10.10;5.70;;;;;;;-0.42;59.60;96850.66;108951;1260;72663;-26
2024/01/16 04:00:47;;;;;;;7.70;3.50;;;;;;;-0.58;60.04;96852.27;108876;1262;58844;-26
2024/01/16 04:03:15;;;;;;;13.50;5.80;;;;;;;-0.71;60.69;96848.95;108841;1261;60083;-26
2024/01/16 04:05:42;;;;;;;12.10;5.20;;;;;;;-0.80;60.48;96848.54;108910;1263;72043;-26
2024/01/16 04:08:12;;;;;;;6.60;4.30;;;;;;;-0.95;61.02;96851.96;108888;1262;74324;-26
2024/01/16 04:10:39;;;;;;;10.00;5.30;;;;;;;-1.06;61.44;96858.33;108867;1262;71827;-26
2024/01/16 04:13:07;;;;;;;10.30;5.40;;;;;;;-1.18;61.84;96852.17;108847;1262;59236;-26
2024/01/16 04:15:38;;;;;;;13.80;5.70;;;;;;;-1.18;62.10;96856.95;108865;1262;58759;-26
2024/01/16 04:18:06;;;;;;;9.90;5.30;;;;;;;-1.26;62.37;96854.44;108916;1263;72043;-26
2024/01/16 04:20:33;;;;;;;9.60;5.40;;;;;;;-1.31;62.29;96855.81;108835;1262;73401;-26
2024/01/16 04:23:01;;;;;;;8.40;5.40;;;;;;;-1.35;62.64;96855.89;108928;1260;72648;-26
2024/01/16 04:25:29;;;;;;;7.60;4.80;;;;;;;-1.37;63.08;96857.23;108932;1260;58802;-26
2024/01/16 04:27:57;;;;;;;10.90;4.70;;;;;;;-1.39;63.21;96859.42;108828;1262;60038;-26
2024/01/16 04:30:28;;;;;;;7.10;4.40;;;;;;;-1.40;62.91;96856.04;108741;1262;73043;-26
2024/01/16 04:32:56;;;;;;;9.90;5.20;;;;;;;-1.43;63.24;96858.29;108840;1262;74312;-26
2024/01/16 04:35:24;;;;;;;9.80;5.00;;;;;;;-1.47;63.26;96866.09;108809;1263;72671;-26
2024/01/16 04:37:51;;;;;;;7.50;4.20;;;;;;;-1.56;63.54;96866.83;108807;1262;59076;-26
2024/01/16 04:40:19;;;;;;;5.90;3.60;;;;;;;-1.62;63.70;96860.92;108885;1263;58792;-26
2024/01/16 04:42:47;;;;;;;7.70;4.00;;;;;;;-1.06;62.80;96866.50;108815;1263;73033;-26
2024/01/16 04:45:14;;;;;;;6.60;3.40;;;;;;;-0.49;60.76;96868.66;108826;1262;74291;-26
2024/01/16 04:47:42;;;;;;;5.70;3.60;;;;;;;-0.39;60.21;96875.88;108813;1263;71357;-26
2024/01/16 04:50:09;;;;;;;4.80;3.30;;;;;;;-0.58;60.65;96876.48;108870;1262;58854;-28
2024/01/16 04:52:37;;;;;;;5.50;2.90;;;;;;;-0.82;61.60;96868.81;108836;1262;60103;-26
2024/01/16 04:55:05;;;;;;;5.40;3.10;;;;;;;-0.89;61.91;96871.13;108757;1263;73110;-26
2024/01/16 04:57:33;;;;;;;7.70;3.70;;;;;;;-1.06;62.51;96870.62;108933;1262;73160;-26
2024/01/16 05:00:00;;;;;;;6.60;4.20;;;;;;;-1.17;63.13;96869.17;108822;1263;71393;-26
2024/01/16 05:02:28;;;;;;;6.00;3.80;;;;;;;-1.22;63.10;96875.45;108797;1262;59364;-26
2024/01/16 05:04:56;;;;;;;6.30;3.60;;;;;;;-1.35;63.63;96875.49;108857;1262;59982;-26
2024/01/16 05:07:23;;;;;;;5.80;3.70;;;;;;;-1.39;63.83;96877.75;108833;1262;72079;-26
2024/01/16 05:09:51;;;;;;;9.00;4.00;;;;;;;-1.42;64.24;96876.30;108814;1262;74306;-26
2024/01/16 05:12:18;;;;;;;4.50;3.50;;;;;;;-1.49;64.55;96876.75;108786;1262;71470;-26
2024/01/16 05:14:45;;;;;;;7.20;4.00;;;;;;;-1.13;64.05;96889.52;108800;1263;58885;-26
2024/01/16 05:17:13;;;;;;;5.40;3.60;;;;;;;-0.69;62.71;96884.75;108823;1262;58756;-26
2024/01/16 05:19:40;;;;;;;8.30;3.60;;;;;;;-0.54;62.56;96899.58;108836;1262;71819;-26
2024/01/16 05:22:10;;;;;;;6.50;3.40;;;;;;;-0.60;62.31;96891.49;108807;1263;74106;-26
2024/01/16 05:24:37;;;;;;;8.70;3.40;;;;;;;-0.86;63.50;96898.88;108742;1263;71506;-26
2024/01/16 05:27:05;;;;;;;6.60;4.10;;;;;;;-1.05;64.16;96904.58;108792;1263;59265;-26
2024/01/16 05:29:32;;;;;;;6.00;3.30;;;;;;;-1.07;64.46;96908.81;108790;1263;60010;-26
2024/01/16 05:32:00;;;;;;;6.20;3.60;;;;;;;-1.22;64.68;96909.65;108831;1263;72940;-26
2024/01/16 05:34:28;;;;;;;8.00;6.00;;;;;;;-1.32;64.79;96906.92;108826;1262;74094;-26
2024/01/16 05:36:56;;;;;;;8.40;3.70;;;;;;;-1.21;64.94;96912.46;108769;1263;72475;-26
2024/01/16 05:39:23;;;;;;;4.90;2.60;;;;;;;-1.18;65.06;96902.44;108775;1263;60040;-26
2024/01/16 05:41:51;;;;;;;4.80;3.00;;;;;;;-0.57;63.73;96920.70;108799;1262;60094;-26
2024/01/16 05:44:18;;;;;;;8.90;3.10;;;;;;;-0.32;62.74;96918.47;108800;1263;73041;-26
2024/01/16 05:46:46;;;;;;;3.00;2.20;;;;;;;-0.34;62.16;96904.52;108819;1262;74389;-27
2024/01/16 05:49:13;;;;;;;9.00;2.90;;;;;;;-0.42;62.10;96919.73;108804;1263;71408;-27
2024/01/16 05:51:41;;;;;;;5.00;3.10;;;;;;;-0.58;62.69;96931.39;108760;1263;58757;-27
2024/01/16 05:54:08;;;;;;;5.70;3.00;;;;;;;-0.60;63.29;96940.08;108807;1262;60159;-26
2024/01/16 05:56:36;;;;;;;4.80;3.00;;;;;;;-0.91;64.99;96937.39;108791;1263;73075;-26
2024/01/16 05:59:04;;;;;;;5.30;2.90;;;;;;;-0.97;66.12;96943.05;108792;1262;74346;-27
2024/01/16 06:01:32;;;;;;;5.40;2.60;;;;;;;-1.05;67.27;96960.60;108792;1263;72654;-27
2024/01/16 06:03:59;;;;;;;4.80;2.60;;;;;;;-0.84;67.36;96956.45;108781;1263;58810;-26
2024/01/16 06:06:27;;;;;;;5.00;2.50;;;;;;;-0.60;66.26;96953.67;108817;1263;60069;-26
2024/01/16 06:08:55;;;;;;;4.00;2.60;;;;;;;-0.45;65.42;96950.60;108805;1262;73197;-27
2024/01/16 06:11:32;;;;;;;3.20;2.20;;;;;;;-0.62;65.38;96963.54;108811;1262;73160;-27
2024/01/16 06:13:59;;;;;;;6.10;2.60;;;;;;;-0.86;66.25;96975.86;108730;1262;72485;-27
2024/01/16 06:16:27;;;;;;;5.10;2.90;;;;;;;-0.93;66.79;96981.95;108717;1263;59227;-27
2024/01/16 06:18:54;;;;;;;6.10;2.80;;;;;;;-1.20;67.36;96980.91;108820;1263;58815;-26
2024/01/16 06:21:22;;;;;;;4.40;2.40;;;;;;;-1.16;66.93;96988.45;108791;1263;72853;-26
2024/01/16 06:23:51;;;;;;;3.50;2.30;;;;;;;-1.40;67.28;96987.64;108821;1263;73159;-26
2024/01/16 06:26:18;;;;;;;3.80;2.60;;;;;;;-1.43;66.62;96990.93;108746;1263;72622;-26
2024/01/16 06:28:46;;;;;;;4.60;2.10;;;;;;;-1.41;67.11;96993.30;108764;1263;60941;-26
2024/01/16 06:31:14;;;;;;;3.50;1.60;;;;;;;-1.15;65.80;96996.91;108784;1263;58715;-27
2024/01/16 06:33:41;;;;;;;2.70;1.70;;;;;;;-0.96;64.75;97003.64;108783;1263;73939;-26
2024/01/16 06:36:09;;;;;;;3.50;1.90;;;;;;;-1.06;64.42;97001.93;108787;1263;74353;-26
2024/01/16 06:38:38;;;;;;;3.60;2.10;;;;;;;-1.29;64.86;97013.67;108782;1263;71390;-27
2024/01/16 06:41:06;;;;;;;3.20;1.40;;;;;;;-1.46;64.89;97005.92;108769;1263;58746;-27
2024/01/16 06:43:34;;;;;;;1.90;1.30;;;;;;;-1.54;65.34;97021.22;108899;1263;59997;-27
2024/01/16 06:46:01;;;;;;;3.50;1.40;;;;;;;-1.74;65.55;97027.05;108766;1264;72590;-27
2024/01/16 06:48:29;;;;;;;2.30;1.30;;;;;;;-1.77;65.69;97034.92;108770;1263;74267;-27
2024/01/16 06:50:57;;;;;;;3.20;2.20;;;;;;;-1.76;65.58;97039.98;108746;1263;70057;-26
2024/01/16 06:53:25;;;;;;;3.30;1.90;;;;;;;-1.77;65.59;97043.10;108779;1263;58949;-27
2024/01/16 06:55:52;;;;;;;3.00;2.00;;;;;;;-1.89;65.66;97042.16;108779;1263;58774;-27
2024/01/16 06:58:20;;;;;;;2.20;1.20;;;;;;;-1.78;65.45;97045.06;108758;1263;72676;-27
2024/01/16 07:00:47;;;;;;;2.20;1.10;;;;;;;-1.21;63.66;97053.81;108758;1263;74907;-27
2024/01/16 07:03:15;;;;;;;1.90;1.10;;;;;;;-1.22;63.20;97048.27;108750;1263;72478;-26
2024/01/16 07:05:44;;;;;;;2.00;1.10;;;;;;;-1.21;62.96;97058.41;108766;1263;60643;-27
2024/01/16 07:08:12;;;;;;;3.70;1.20;;;;;;;-1.33;63.56;97061.24;108808;1263;61005;-26
2024/01/16 07:10:39;;;;;;;3.00;1.60;;;;;;;-1.52;64.15;97061.45;108777;1263;73848;-27
2024/01/16 07:13:07;;;;;;;5.30;1.90;;;;;;;-1.66;64.42;97060.27;108793;1263;72131;-27
2024/01/16 07:15:34;;;;;;;3.30;1.50;;;;;;;-1.77;64.46;97059.08;108781;1263;71708;-26
2024/01/16 07:18:02;;;;;;;3.90;2.30;;;;;;;-1.82;63.90;97060.44;108878;1263;59339;-26
2024/01/16 07:20:30;;;;;;;2.60;1.20;;;;;;;-1.79;63.86;97071.16;108834;1263;58754;-27
2024/01/16 07:22:57;;;;;;;2.00;1.20;;;;;;;-1.81;63.43;97076.69;108758;1263;73842;-26
2024/01/16 07:25:25;;;;;;;2.00;1.30;;;;;;;-2.00;63.02;97072.09;108772;1263;73045;-26
2024/01/16 07:27:53;;;;;;;1.70;1.00;;;;;;;-1.97;63.01;97081.09;108745;1263;71189;-26
2024/01/16 07:30:20;;;;;;;3.50;1.60;;;;;;;-1.96;61.81;97078.66;108740;1263;58873;-26
2024/01/16 07:32:48;;;;;;;1.60;1.20;;;;;;;-2.00;61.36;97081.60;108761;1263;58778;-27
2024/01/16 07:35:16;;;;;;;2.00;1.30;;;;;;;-1.98;61.14;97083.84;108761;1263;71649;-27
2024/01/16 07:37:43;;;;;;;2.40;1.30;;;;;;;-2.05;61.24;97084.30;108755;1263;73051;-26
2024/01/16 07:40:12;;;;;;;1.70;1.10;;;;;;;-2.15;61.45;97086.25;108738;1263;72477;-27
2024/01/16 07:42:40;;;;;;;2.50;1.40;;;;;;;-1.97;60.81;97093.17;108736;1263;58788;-26
2024/01/16 07:45:08;;;;;;;2.80;1.20;;;;;;;-1.91;60.45;97089.89;108759;1263;58729;-26
2024/01/16 07:47:36;;;;;;;1.90;1.60;;;;;;;-1.93;60.30;97097.49;108731;1264;71688;-26
2024/01/16 07:50:04;;;;;;;1.60;1.20;;;;;;;-1.85;60.03;97085.42;108784;1263;74315;-26
2024/01/16 07:52:35;;;;;;;2.60;1.40;;;;;;;-1.71;59.88;97105.14;108689;1263;72758;-26
2024/01/16 07:55:03;;;;;;;1.20;0.80;;;;;;;-1.70;59.74;97105.94;108724;1263;58867;-26
2024/01/16 07:57:30;;;;;;;2.70;1.30;;;;;;;-1.44;59.04;97119.80;108768;1263;58702;-27
2024/01/16 07:59:58;;;;;;;2.30;1.30;;;;;;;-1.45;58.54;97104.57;108756;1263;73780;-27
2024/01/16 08:02:32;;;;;;;3.60;1.40;;;;;;;-1.31;57.75;97111.01;108765;1263;73150;-27
2024/01/16 08:05:00;;;;;;;1.60;1.20;;;;;;;-1.38;57.88;97134.05;108638;1263;71606;-26
2024/01/16 08:07:28;;;;;;;2.10;1.40;;;;;;;-1.11;57.28;97122.84;108749;1263;59279;-26
2024/01/16 08:09:56;;;;;;;2.40;1.20;;;;;;;-1.15;56.67;97137.02;108661;1263;58742;-27
2024/01/16 08:12:23;;;;;;;1.00;0.90;;;;;;;-1.02;56.13;97134.39;108763;1263;73011;-27
2024/01/16 08:14:52;;;;;;;1.20;1.10;;;;;;;-0.90;55.42;97144.65;108765;1263;74389;-27
2024/01/16 08:17:19;;;;;;;2.50;1.40;;;;;;;-1.05;55.53;97151.75;108755;1263;71417;-27
2024/01/16 08:19:47;;;;;;;5.80;1.50;;;;;;;-1.09;55.34;97159.00;108742;1264;60758;-27
2024/01/16 08:22:15;;;;;;;2.00;1.30;;;;;;;-1.08;55.13;97164.75;108755;1263;58959;-27
2024/01/16 08:24:44;;;;;;;7.30;1.30;;;;;;;-1.13;55.01;97165.38;108740;1263;72653;-27
2024/01/16 08:27:16;;;;;;;3.30;1.30;;;;;;;-0.98;54.92;97179.75;108633;1264;74437;-27
2024/01/16 08:29:47;;;;;;;2.80;1.30;;;;;;;-1.09;54.21;97167.02;108685;1263;72745;-27
2024/01/16 08:32:18;;;;;;;2.00;1.20;;;;;;;-1.27;54.89;97175.10;108758;1263;59362;-26
2024/01/16 08:34:49;;;;;;;1.30;1.10;;;;;;;-1.04;54.67;97176.73;108710;1263;58852;-26
2024/01/16 08:37:26;;;;;;;2.30;1.60;;;;;;;-0.70;53.74;97184.08;108717;1264;72610;-27
2024/01/16 08:39:57;;;;;;;1.40;1.10;;;;;;;-0.88;53.80;97174.35;108800;1263;74495;-27
2024/01/16 08:42:27;;;;;;;2.50;1.80;;;;;;;-1.06;54.31;97180.77;108669;1263;71880;-27
2024/01/16 08:44:57;;;;;;;3.70;1.30;;;;;;;-1.11;54.11;97165.91;108690;1264;61777;-27
2024/01/16 08:47:28;;;;;;;3.20;1.50;;;;;;;-1.22;54.19;97161.48;108704;1263;60690;-27
2024/01/16 08:49:58;;;;;;;3.70;1.70;;;;;;;-1.49;54.31;97151.76;108674;1263;75928;-28
2024/01/16 08:52:29;;;;;;;2.00;1.50;;;;;;;-1.18;54.32;97166.23;108722;1263;75644;-27
2024/01/16 08:55:00;;;;;;;2.30;1.20;;;;;;;-1.28;54.06;97174.28;108693;1264;72674;-27
2024/01/16 08:57:30;;;;;;;2.90;1.30;;;;;;;-1.13;53.74;97173.37;108686;1264;59322;-27
2024/01/16 09:00:00;;;;;;;3.20;1.40;;;;;;;-1.35;53.87;97158.06;108681;1264;60023;-27
2024/01/16 09:02:30;;;;;;;2.20;1.40;;;;;;;-1.55;55.15;97194.55;108740;1264;76138;-27
2024/01/16 09:05:01;;;;;;;1.90;1.20;;;;;;;-1.22;54.50;97199.67;108676;1263;73664;-27
2024/01/16 09:07:32;;;;;;;1.70;1.10;;;;;;;-1.19;54.02;97179.70;108688;1264;72426;-27
2024/01/16 09:10:02;;;;;;;2.50;1.40;;;;;;;-0.93;53.28;97204.84;108694;1263;59391;-27
2024/01/16 09:12:34;;;;;;;3.00;1.50;;;;;;;-1.12;53.40;97200.92;108749;1263;58874;-27
2024/01/16 09:15:05;;;;;;;1.50;1.10;;;;;;;-1.06;53.29;97205.27;108632;1264;75168;-27
2024/01/16 09:17:35;;;;;;;5.70;1.40;;;;;;;-0.84;53.02;97214.10;108695;1264;75087;-27
2024/01/16 09:20:07;;;;;;;2.10;1.20;;;;;;;-0.67;52.68;97215.77;108556;1263;74061;-27
2024/01/16 09:22:38;;;;;;;1.40;1.00;;;;;;;-0.65;52.06;97210.71;108598;1264;58848;-27
2024/01/16 09:32:01;;;;;;;1.60;1.10;;;;;;;-0.22;50.74;97225.94;102670;1292;600046;-28
2024/01/16 09:34:29;;;;;;;1.90;1.20;;;;;;;-0.27;50.45;97223.58;104858;1266;61118;-28
2024/01/16 09:37:00;;;;;;;3.30;1.80;;;;;;;-0.74;50.85;97213.97;104818;1271;61829;-28
2024/01/16 09:39:30;;;;;;;2.40;1.40;;;;;;;-0.67;50.94;97221.52;104826;1266;72755;-28
2024/01/16 09:42:00;;;;;;;1.30;1.20;;;;;;;-0.83;50.64;97225.63;105727;1259;74523;-28
2024/01/16 09:44:29;;;;;;;2.50;1.40;;;;;;;-0.82;50.52;97229.68;105421;1256;488905;-28
2024/01/16 09:46:57;;;;;;;2.30;1.40;;;;;;;-0.85;50.89;97240.20;105722;1252;61200;-28
2024/01/16 09:49:25;;;;;;;3.50;1.60;;;;;;;-0.76;50.38;97229.98;105795;1253;61766;-28
2024/01/16 09:51:53;;;;;;;2.40;1.20;;;;;;;-0.90;50.67;97253.67;105924;1257;72284;-28
2024/01/16 09:54:20;;;;;;;2.20;1.80;;;;;;;-0.66;50.27;97254.71;105676;1254;74393;-29
2024/01/16 09:56:51;;;;;;;2.20;1.50;;;;;;;-0.79;50.05;97245.33;105842;1256;74039;-27
2024/01/16 09:59:19;;;;;;;3.20;1.90;;;;;;;-1.04;50.94;97239.21;105645;1253;61167;-27
2024/01/16 10:01:49;;;;;;;4.00;2.20;;;;;;;-0.93;50.56;97246.70;105907;1254;61102;-27
2024/01/16 10:04:17;;;;;;;2.50;1.90;;;;;;;-1.18;51.87;97269.06;105757;1253;71853;-28
2024/01/16 10:06:46;;;;;;;6.20;2.10;;;;;;;-1.36;52.16;97271.70;105842;1253;75151;-27
2024/01/16 10:09:15;;;;;;;3.30;1.70;;;;;;;-1.39;52.47;97262.70;105862;1253;75315;-27
2024/01/16 10:11:44;;;;;;;3.50;2.30;;;;;;;-1.40;52.56;97264.74;105866;1259;61177;-27
2024/01/16 10:14:12;;;;;;;3.30;1.90;;;;;;;-1.49;52.95;97284.92;105872;1259;61125;-27
2024/01/16 10:17:05;;;;;;;1.90;1.50;;;;;;;-1.33;52.75;97285.09;105799;1253;71697;-27
2024/01/16 10:19:34;;;;;;;5.00;2.20;;;;;;;-1.03;52.16;97293.48;105814;1256;73599;-27
2024/01/16 10:22:25;;;;;;;2.40;1.60;;;;;;;-1.06;51.77;97288.55;105816;1253;76188;-27
2024/01/16 10:25:08;;;;;;;2.60;1.70;;;;;;;-1.06;52.25;97308.67;105641;1259;61239;-27
2024/01/16 10:27:37;;;;;;;1.90;1.60;;;;;;;-0.59;51.09;97293.31;105691;1253;61053;-27
2024/01/16 10:30:05;;;;;;;2.20;1.70;;;;;;;-0.70;50.50;97297.59;105708;1258;75237;-27
2024/01/16 10:32:35;;;;;;;2.50;1.60;;;;;;;-0.74;50.92;97300.89;105803;1253;76573;-27
2024/01/16 10:35:11;;;;;;;2.60;1.90;;;;;;;-0.56;49.93;97287.16;105718;1257;72776;-27
2024/01/16 10:37:44;;;;;;;2.40;1.50;;;;;;;-0.55;50.20;97294.41;105673;1253;61194;-27
2024/01/16 10:40:19;;;;;;;3.10;1.80;;;;;;;-0.52;50.13;97299.16;105707;1253;61110;-28
2024/01/16 10:42:58;;;;;;;1.80;1.40;;;;;;;-0.48;49.88;97302.88;105694;1253;73080;-27
2024/01/16 10:45:26;;;;;;;3.10;2.10;;;;;;;-0.75;50.08;97291.10;105637;1253;75159;-27
2024/01/16 10:48:07;;;;;;;2.00;1.60;;;;;;;-0.54;50.13;97309.17;105724;1253;71913;-27
2024/01/16 10:50:37;;;;;;;2.80;2.00;;;;;;;-0.45;50.48;97318.55;105662;1253;61365;-28
2024/01/16 10:53:07;;;;;;;7.30;1.60;;;;;;;-0.43;50.04;97301.84;105448;1253;61083;-27
2024/01/16 10:55:53;;;;;;;2.20;1.90;;;;;;;-0.37;50.12;97320.23;105679;1258;73089;-27
2024/01/16 10:58:22;;;;;;;4.70;1.80;;;;;;;-0.48;50.55;97311.23;105322;1253;74248;-27
2024/01/16 11:00:53;;;;;;;3.00;1.20;;;;;;;-0.89;51.51;97325.70;105754;1254;72355;-27
2024/01/16 11:03:29;;;;;;;4.50;1.80;;;;;;;-0.73;51.59;97322.86;105548;1261;61165;-27
2024/01/16 11:05:57;;;;;;;3.60;2.40;;;;;;;-0.71;51.72;97334.60;105444;1260;61101;-27
2024/01/16 11:08:30;;;;;;;2.40;1.80;;;;;;;-0.44;51.17;97331.94;105599;1258;74300;-28
2024/01/16 11:10:59;;;;;;;;;;;;;;;-0.45;51.22;97335.41;105707;1253;76325;-28
2024/01/16 11:13:27;;;;;;;3.10;1.30;;;;;;;-0.64;51.74;97340.34;105814;1259;72680;-27
2024/01/16 11:15:55;;;;;;;3.30;2.00;;;;;;;-0.80;52.28;97345.08;105633;1253;61244;-27
2024/01/16 11:18:23;;;;;;;2.40;1.70;;;;;;;-0.57;52.22;97343.49;105676;1261;61239;-27
2024/01/16 11:20:51;;;;;;;2.70;1.70;;;;;;;-0.32;51.14;97341.08;105776;1253;72659;-27
2024/01/16 11:23:34;;;;;;;4.90;1.60;;;;;;;-0.35;50.66;97346.34;105720;1253;75407;-27
2024/01/16 11:26:28;;;;;;;1.90;1.40;;;;;;;-0.48;51.41;97352.30;105701;1256;73925;-28
2024/01/16 11:28:58;;;;;;;2.00;1.40;;;;;;;-0.29;50.75;97355.72;105689;1256;61896;-27
2024/01/16 11:31:31;;;;;;;1.70;1.40;;;;;;;-0.14;50.49;97364.45;105806;1253;63525;-27
2024/01/16 11:34:00;;;;;;;3.90;2.10;;;;;;;-0.51;50.27;97355.38;105673;1253;74561;-27
2024/01/16 11:36:57;;;;;;;2.10;1.40;;;;;;;-0.76;50.48;97358.83;105690;1255;75713;-28
2024/01/16 11:39:25;;;;;;;2.80;1.70;;;;;;;-0.59;50.52;97366.13;105674;1257;73076;-27
2024/01/16 11:41:53;;;;;;;2.30;1.50;;;;;;;-0.68;49.85;97356.63;105771;1259;61153;-27
2024/01/16 11:44:43;;;;;;;2.90;1.80;;;;;;;-0.78;49.73;97350.25;105606;1253;62554;-27
2024/01/16 11:47:19;;;;;;;2.40;1.60;;;;;;;-0.62;50.61;97375.84;105782;1253;74002;-27
2024/01/16 11:49:47;;;;;;;1.40;1.30;;;;;;;-0.62;49.74;97363.05;105671;1261;73816;-27
2024/01/16 11:52:38;;;;;;;1.50;1.40;;;;;;;-0.66;50.04;97373.91;105686;1253;74813;-27
2024/01/16 11:55:48;;;;;;;1.70;1.10;;;;;;;-0.85;50.80;97376.25;105660;1256;61004;-27
2024/01/16 11:58:50;;;;;;;2.00;1.40;;;;;;;-1.14;51.52;97377.66;105569;1254;61131;-27
2024/01/16 12:01:19;;;;;;;2.00;1.50;;;;;;;-1.01;51.46;97384.86;105630;1258;73167;-27
2024/01/16 12:04:06;;;;;;;2.10;1.50;;;;;;;-1.02;51.23;97370.94;105708;1259;73602;-27
2024/01/16 12:06:35;;;;;;;2.80;1.80;;;;;;;-0.79;51.62;97403.44;105820;1259;71745;-27
2024/01/16 12:09:20;;;;;;;4.10;1.30;;;;;;;-0.89;51.70;97402.03;105704;1260;61147;-27
2024/01/16 12:12:01;;;;;;;2.90;1.60;;;;;;;-0.99;51.24;97406.18;105554;1253;61181;-27
2024/01/16 12:14:29;;;;;;;7.70;2.00;;;;;;;-1.17;51.68;97405.73;105520;1259;74247;-27
2024/01/16 12:17:13;;;;;;;1.80;1.40;;;;;;;-1.26;51.92;97414.80;105327;1253;75440;-27
2024/01/16 12:19:43;;;;;;;2.70;1.30;;;;;;;-1.43;51.89;97413.22;105393;1261;75489;-27
2024/01/16 12:22:16;;;;;;;1.60;1.20;;;;;;;-1.21;52.29;97428.98;105681;1258;61159;-27